sensor_id;sensor_type;location;lat;lon;timestamp;P1;durP1;ratioP1;P2;durP2;ratioP2
72761;SDS011;60886;55.034;73.150;2023-08-06T00:01:49;16.43;;;9.43;;
72761;SDS011;60886;55.034;73.150;2023-08-06T00:04:51;15.60;;;8.53;;
72761;SDS011;60886;55.034;73.150;2023-08-06T00:07:53;17.60;;;8.82;;
72761;SDS011;60886;55.034;73.150;2023-08-06T00:10:55;18.50;;;9.02;;
72761;SDS011;60886;55.034;73.150;2023-08-06T00:13:58;24.93;;;9.33;;
72761;SDS011;60886;55.034;73.150;2023-08-06T00:16:59;18.13;;;9.68;;
72761;SDS011;60886;55.034;73.150;2023-08-06T00:20:01;17.15;;;9.35;;
72761;SDS011;60886;55.034;73.150;2023-08-06T00:23:09;18.17;;;9.57;;
72761;SDS011;60886;55.034;73.150;2023-08-06T00:26:10;17.52;;;9.73;;
72761;SDS011;60886;55.034;73.150;2023-08-06T00:29:11;18.20;;;9.63;;
72761;SDS011;60886;55.034;73.150;2023-08-06T00:32:13;18.70;;;10.03;;
72761;SDS011;60886;55.034;73.150;2023-08-06T00:35:14;16.80;;;8.90;;
72761;SDS011;60886;55.034;73.150;2023-08-06T00:38:16;19.20;;;10.53;;
72761;SDS011;60886;55.034;73.150;2023-08-06T00:41:17;18.02;;;9.23;;
72761;SDS011;60886;55.034;73.150;2023-08-06T00:44:18;17.02;;;9.77;;
72761;SDS011;60886;55.034;73.150;2023-08-06T00:47:20;18.85;;;10.00;;
72761;SDS011;60886;55.034;73.150;2023-08-06T00:50:21;26.83;;;19.33;;
72761;SDS011;60886;55.034;73.150;2023-08-06T00:53:23;26.57;;;19.40;;
72761;SDS011;60886;55.034;73.150;2023-08-06T00:56:25;25.48;;;15.65;;
72761;SDS011;60886;55.034;73.150;2023-08-06T00:59:27;23.48;;;14.73;;
72761;SDS011;60886;55.034;73.150;2023-08-06T01:02:29;22.40;;;12.73;;
72761;SDS011;60886;55.034;73.150;2023-08-06T01:05:35;20.55;;;12.38;;
72761;SDS011;60886;55.034;73.150;2023-08-06T01:15:19;21.00;;;10.82;;
72761;SDS011;60886;55.034;73.150;2023-08-06T01:18:28;20.30;;;10.65;;
72761;SDS011;60886;55.034;73.150;2023-08-06T01:21:31;22.35;;;12.23;;
72761;SDS011;60886;55.034;73.150;2023-08-06T01:24:33;20.67;;;11.40;;
72761;SDS011;60886;55.034;73.150;2023-08-06T01:27:44;18.40;;;11.10;;
72761;SDS011;60886;55.034;73.150;2023-08-06T01:30:49;20.10;;;10.98;;
72761;SDS011;60886;55.034;73.150;2023-08-06T01:33:52;19.97;;;11.33;;
72761;SDS011;60886;55.034;73.150;2023-08-06T01:36:56;18.20;;;9.87;;
72761;SDS011;60886;55.034;73.150;2023-08-06T01:39:58;17.15;;;9.32;;
72761;SDS011;60886;55.034;73.150;2023-08-06T01:42:59;15.03;;;9.00;;
72761;SDS011;60886;55.034;73.150;2023-08-06T01:46:01;14.90;;;8.23;;
72761;SDS011;60886;55.034;73.150;2023-08-06T01:49:03;17.65;;;9.20;;
72761;SDS011;60886;55.034;73.150;2023-08-06T01:52:04;15.98;;;9.20;;
72761;SDS011;60886;55.034;73.150;2023-08-06T01:55:08;15.05;;;9.20;;
72761;SDS011;60886;55.034;73.150;2023-08-06T01:58:09;16.53;;;9.87;;
72761;SDS011;60886;55.034;73.150;2023-08-06T02:01:11;16.65;;;9.68;;
72761;SDS011;60886;55.034;73.150;2023-08-06T02:04:12;15.43;;;8.90;;
72761;SDS011;60886;55.034;73.150;2023-08-06T02:07:13;15.63;;;8.90;;
72761;SDS011;60886;55.034;73.150;2023-08-06T02:10:15;16.20;;;9.40;;
72761;SDS011;60886;55.034;73.150;2023-08-06T02:13:16;19.88;;;9.18;;
72761;SDS011;60886;55.034;73.150;2023-08-06T02:16:18;16.08;;;9.40;;
72761;SDS011;60886;55.034;73.150;2023-08-06T02:19:19;14.43;;;8.93;;
72761;SDS011;60886;55.034;73.150;2023-08-06T02:22:23;17.20;;;9.50;;
72761;SDS011;60886;55.034;73.150;2023-08-06T02:25:24;16.85;;;9.38;;
72761;SDS011;60886;55.034;73.150;2023-08-06T02:28:25;16.33;;;9.27;;
72761;SDS011;60886;55.034;73.150;2023-08-06T02:31:27;16.27;;;8.60;;
72761;SDS011;60886;55.034;73.150;2023-08-06T02:34:28;14.05;;;8.70;;
72761;SDS011;60886;55.034;73.150;2023-08-06T02:37:29;16.73;;;8.60;;
72761;SDS011;60886;55.034;73.150;2023-08-06T02:40:35;15.43;;;8.80;;
72761;SDS011;60886;55.034;73.150;2023-08-06T02:43:37;16.37;;;7.90;;
72761;SDS011;60886;55.034;73.150;2023-08-06T02:46:44;16.55;;;8.50;;
72761;SDS011;60886;55.034;73.150;2023-08-06T02:49:46;14.55;;;7.30;;
72761;SDS011;60886;55.034;73.150;2023-08-06T02:52:49;16.57;;;7.57;;
72761;SDS011;60886;55.034;73.150;2023-08-06T02:55:50;12.38;;;6.80;;
72761;SDS011;60886;55.034;73.150;2023-08-06T02:58:56;17.10;;;7.40;;
72761;SDS011;60886;55.034;73.150;2023-08-06T03:02:09;19.57;;;7.90;;
72761;SDS011;60886;55.034;73.150;2023-08-06T03:05:35;15.10;;;8.25;;
72761;SDS011;60886;55.034;73.150;2023-08-06T03:08:37;17.17;;;9.20;;
72761;SDS011;60886;55.034;73.150;2023-08-06T03:11:39;16.87;;;8.07;;
72761;SDS011;60886;55.034;73.150;2023-08-06T03:14:44;17.75;;;8.05;;
72761;SDS011;60886;55.034;73.150;2023-08-06T03:17:45;14.80;;;8.40;;
72761;SDS011;60886;55.034;73.150;2023-08-06T03:20:47;16.97;;;8.10;;
72761;SDS011;60886;55.034;73.150;2023-08-06T03:23:49;12.18;;;6.65;;
72761;SDS011;60886;55.034;73.150;2023-08-06T03:26:54;14.23;;;7.10;;
72761;SDS011;60886;55.034;73.150;2023-08-06T03:29:55;13.40;;;6.55;;
72761;SDS011;60886;55.034;73.150;2023-08-06T03:33:00;15.97;;;6.67;;
72761;SDS011;60886;55.034;73.150;2023-08-06T03:36:02;11.68;;;6.28;;
72761;SDS011;60886;55.034;73.150;2023-08-06T03:39:04;12.65;;;7.18;;
72761;SDS011;60886;55.034;73.150;2023-08-06T03:42:06;13.83;;;7.27;;
72761;SDS011;60886;55.034;73.150;2023-08-06T03:45:08;12.52;;;7.43;;
72761;SDS011;60886;55.034;73.150;2023-08-06T03:48:10;13.93;;;7.03;;
72761;SDS011;60886;55.034;73.150;2023-08-06T03:51:12;14.23;;;7.40;;
72761;SDS011;60886;55.034;73.150;2023-08-06T03:54:15;14.52;;;7.10;;
72761;SDS011;60886;55.034;73.150;2023-08-06T03:57:16;11.80;;;6.87;;
72761;SDS011;60886;55.034;73.150;2023-08-06T04:00:18;13.73;;;7.07;;
72761;SDS011;60886;55.034;73.150;2023-08-06T04:03:25;14.00;;;7.70;;
72761;SDS011;60886;55.034;73.150;2023-08-06T04:06:26;14.32;;;8.13;;
72761;SDS011;60886;55.034;73.150;2023-08-06T04:09:28;13.10;;;7.77;;
72761;SDS011;60886;55.034;73.150;2023-08-06T04:12:30;15.73;;;8.50;;
72761;SDS011;60886;55.034;73.150;2023-08-06T04:15:35;14.10;;;8.18;;
72761;SDS011;60886;55.034;73.150;2023-08-06T04:18:37;20.35;;;9.20;;
72761;SDS011;60886;55.034;73.150;2023-08-06T04:21:44;14.83;;;8.87;;
72761;SDS011;60886;55.034;73.150;2023-08-06T04:24:56;14.63;;;8.25;;
72761;SDS011;60886;55.034;73.150;2023-08-06T04:28:00;16.27;;;8.57;;
72761;SDS011;60886;55.034;73.150;2023-08-06T04:31:02;14.97;;;7.93;;
72761;SDS011;60886;55.034;73.150;2023-08-06T04:34:06;15.50;;;8.07;;
72761;SDS011;60886;55.034;73.150;2023-08-06T04:37:09;15.55;;;8.00;;
72761;SDS011;60886;55.034;73.150;2023-08-06T04:40:13;14.67;;;8.27;;
72761;SDS011;60886;55.034;73.150;2023-08-06T04:43:15;14.25;;;8.48;;
72761;SDS011;60886;55.034;73.150;2023-08-06T04:46:16;18.00;;;9.73;;
72761;SDS011;60886;55.034;73.150;2023-08-06T04:49:17;17.67;;;9.77;;
72761;SDS011;60886;55.034;73.150;2023-08-06T04:52:21;16.27;;;9.73;;
72761;SDS011;60886;55.034;73.150;2023-08-06T04:55:22;25.67;;;12.07;;
72761;SDS011;60886;55.034;73.150;2023-08-06T04:58:23;17.30;;;9.13;;
72761;SDS011;60886;55.034;73.150;2023-08-06T05:01:25;15.80;;;9.15;;
72761;SDS011;60886;55.034;73.150;2023-08-06T05:04:27;14.00;;;8.10;;
72761;SDS011;60886;55.034;73.150;2023-08-06T05:07:28;27.53;;;9.70;;
72761;SDS011;60886;55.034;73.150;2023-08-06T05:10:35;23.72;;;10.50;;
72761;SDS011;60886;55.034;73.150;2023-08-06T05:13:37;47.90;;;12.95;;
72761;SDS011;60886;55.034;73.150;2023-08-06T05:16:38;49.00;;;12.13;;
72761;SDS011;60886;55.034;73.150;2023-08-06T05:19:40;44.17;;;12.50;;
72761;SDS011;60886;55.034;73.150;2023-08-06T05:22:41;42.17;;;13.40;;
72761;SDS011;60886;55.034;73.150;2023-08-06T05:25:42;40.67;;;12.43;;
72761;SDS011;60886;55.034;73.150;2023-08-06T05:28:44;46.00;;;12.55;;
72761;SDS011;60886;55.034;73.150;2023-08-06T05:31:46;39.30;;;12.80;;
72761;SDS011;60886;55.034;73.150;2023-08-06T05:34:47;36.75;;;13.82;;
72761;SDS011;60886;55.034;73.150;2023-08-06T05:37:50;43.33;;;14.93;;
72761;SDS011;60886;55.034;73.150;2023-08-06T05:40:52;35.10;;;11.50;;
72761;SDS011;60886;55.034;73.150;2023-08-06T05:43:53;52.17;;;12.98;;
72761;SDS011;60886;55.034;73.150;2023-08-06T05:46:55;35.10;;;12.00;;
72761;SDS011;60886;55.034;73.150;2023-08-06T05:49:56;62.67;;;13.80;;
72761;SDS011;60886;55.034;73.150;2023-08-06T05:52:57;41.10;;;12.83;;
72761;SDS011;60886;55.034;73.150;2023-08-06T05:55:59;33.58;;;11.38;;
72761;SDS011;60886;55.034;73.150;2023-08-06T05:59:01;30.77;;;10.60;;
72761;SDS011;60886;55.034;73.150;2023-08-06T06:02:02;33.57;;;10.90;;
72761;SDS011;60886;55.034;73.150;2023-08-06T06:05:04;17.77;;;9.30;;
72761;SDS011;60886;55.034;73.150;2023-08-06T06:08:05;15.47;;;9.47;;
72761;SDS011;60886;55.034;73.150;2023-08-06T06:11:07;14.20;;;8.50;;
72761;SDS011;60886;55.034;73.150;2023-08-06T06:14:08;37.70;;;11.82;;
72761;SDS011;60886;55.034;73.150;2023-08-06T06:17:10;16.23;;;9.00;;
72761;SDS011;60886;55.034;73.150;2023-08-06T06:20:12;15.18;;;9.40;;
72761;SDS011;60886;55.034;73.150;2023-08-06T06:23:13;15.05;;;9.00;;
72761;SDS011;60886;55.034;73.150;2023-08-06T06:26:15;13.07;;;8.50;;
72761;SDS011;60886;55.034;73.150;2023-08-06T06:29:16;14.15;;;8.93;;
72761;SDS011;60886;55.034;73.150;2023-08-06T06:32:17;15.10;;;9.20;;
72761;SDS011;60886;55.034;73.150;2023-08-06T06:35:19;12.98;;;8.82;;
72761;SDS011;60886;55.034;73.150;2023-08-06T06:38:20;14.75;;;8.82;;
72761;SDS011;60886;55.034;73.150;2023-08-06T06:41:21;14.13;;;8.83;;
72761;SDS011;60886;55.034;73.150;2023-08-06T06:44:22;16.10;;;8.60;;
72761;SDS011;60886;55.034;73.150;2023-08-06T06:47:24;13.57;;;8.45;;
72761;SDS011;60886;55.034;73.150;2023-08-06T06:50:35;12.39;;;8.31;;
72761;SDS011;60886;55.034;73.150;2023-08-06T06:53:37;14.75;;;8.40;;
72761;SDS011;60886;55.034;73.150;2023-08-06T06:56:38;15.82;;;8.73;;
72761;SDS011;60886;55.034;73.150;2023-08-06T06:59:39;12.57;;;8.30;;
72761;SDS011;60886;55.034;73.150;2023-08-06T07:02:41;14.38;;;8.73;;
72761;SDS011;60886;55.034;73.150;2023-08-06T07:05:43;14.97;;;8.70;;
72761;SDS011;60886;55.034;73.150;2023-08-06T07:08:45;14.95;;;8.95;;
72761;SDS011;60886;55.034;73.150;2023-08-06T07:11:46;13.87;;;8.80;;
72761;SDS011;60886;55.034;73.150;2023-08-06T07:14:48;14.10;;;8.38;;
72761;SDS011;60886;55.034;73.150;2023-08-06T07:17:49;13.45;;;8.43;;
72761;SDS011;60886;55.034;73.150;2023-08-06T07:20:51;14.40;;;9.20;;
72761;SDS011;60886;55.034;73.150;2023-08-06T07:23:53;14.45;;;9.02;;
72761;SDS011;60886;55.034;73.150;2023-08-06T07:26:55;17.63;;;9.45;;
72761;SDS011;60886;55.034;73.150;2023-08-06T07:29:56;14.27;;;8.70;;
72761;SDS011;60886;55.034;73.150;2023-08-06T07:32:59;13.63;;;8.38;;
72761;SDS011;60886;55.034;73.150;2023-08-06T07:36:07;16.03;;;8.93;;
72761;SDS011;60886;55.034;73.150;2023-08-06T07:39:12;12.80;;;8.57;;
72761;SDS011;60886;55.034;73.150;2023-08-06T07:42:14;14.77;;;8.83;;
72761;SDS011;60886;55.034;73.150;2023-08-06T07:45:15;13.38;;;8.50;;
72761;SDS011;60886;55.034;73.150;2023-08-06T07:48:16;12.60;;;8.20;;
72761;SDS011;60886;55.034;73.150;2023-08-06T07:51:18;13.02;;;8.73;;
72761;SDS011;60886;55.034;73.150;2023-08-06T07:54:19;14.38;;;8.80;;
72761;SDS011;60886;55.034;73.150;2023-08-06T07:57:21;12.97;;;9.00;;
72761;SDS011;60886;55.034;73.150;2023-08-06T08:00:22;12.77;;;8.38;;
72761;SDS011;60886;55.034;73.150;2023-08-06T08:03:23;12.93;;;8.40;;
72761;SDS011;60886;55.034;73.150;2023-08-06T08:06:25;14.32;;;8.98;;
72761;SDS011;60886;55.034;73.150;2023-08-06T08:09:27;13.57;;;9.15;;
72761;SDS011;60886;55.034;73.150;2023-08-06T08:12:29;14.70;;;9.03;;
72761;SDS011;60886;55.034;73.150;2023-08-06T08:15:35;13.55;;;8.65;;
72761;SDS011;60886;55.034;73.150;2023-08-06T08:18:37;13.77;;;8.63;;
72761;SDS011;60886;55.034;73.150;2023-08-06T08:21:39;15.67;;;9.07;;
72761;SDS011;60886;55.034;73.150;2023-08-06T08:24:40;12.65;;;7.90;;
72761;SDS011;60886;55.034;73.150;2023-08-06T08:27:41;12.63;;;8.48;;
72761;SDS011;60886;55.034;73.150;2023-08-06T08:30:43;12.87;;;8.40;;
72761;SDS011;60886;55.034;73.150;2023-08-06T08:33:45;13.95;;;8.85;;
72761;SDS011;60886;55.034;73.150;2023-08-06T08:36:46;13.60;;;8.30;;
72761;SDS011;60886;55.034;73.150;2023-08-06T08:39:48;14.15;;;8.48;;
72761;SDS011;60886;55.034;73.150;2023-08-06T08:42:49;14.33;;;8.40;;
72761;SDS011;60886;55.034;73.150;2023-08-06T08:45:53;13.97;;;8.73;;
72761;SDS011;60886;55.034;73.150;2023-08-06T08:49:01;13.38;;;8.50;;
72761;SDS011;60886;55.034;73.150;2023-08-06T08:52:04;15.17;;;8.40;;
72761;SDS011;60886;55.034;73.150;2023-08-06T08:55:11;14.60;;;8.48;;
72761;SDS011;60886;55.034;73.150;2023-08-06T08:58:15;13.17;;;7.97;;
72761;SDS011;60886;55.034;73.150;2023-08-06T09:01:16;13.15;;;8.20;;
72761;SDS011;60886;55.034;73.150;2023-08-06T09:04:26;12.70;;;7.68;;
72761;SDS011;60886;55.034;73.150;2023-08-06T09:07:38;12.97;;;8.10;;
72761;SDS011;60886;55.034;73.150;2023-08-06T09:10:48;12.10;;;7.87;;
72761;SDS011;60886;55.034;73.150;2023-08-06T09:13:51;12.63;;;7.93;;
72761;SDS011;60886;55.034;73.150;2023-08-06T09:16:55;14.43;;;7.72;;
72761;SDS011;60886;55.034;73.150;2023-08-06T09:19:58;13.25;;;8.30;;
72761;SDS011;60886;55.034;73.150;2023-08-06T09:23:06;12.80;;;7.50;;
72761;SDS011;60886;55.034;73.150;2023-08-06T09:26:11;12.90;;;8.18;;
72761;SDS011;60886;55.034;73.150;2023-08-06T09:29:13;14.63;;;8.10;;
72761;SDS011;60886;55.034;73.150;2023-08-06T09:32:17;14.05;;;7.90;;
72761;SDS011;60886;55.034;73.150;2023-08-06T09:35:19;15.20;;;7.85;;
72761;SDS011;60886;55.034;73.150;2023-08-06T09:38:20;13.52;;;7.95;;
72761;SDS011;60886;55.034;73.150;2023-08-06T09:41:28;13.23;;;7.60;;
72761;SDS011;60886;55.034;73.150;2023-08-06T09:44:30;13.20;;;7.90;;
72761;SDS011;60886;55.034;73.150;2023-08-06T09:47:32;14.05;;;8.00;;
72761;SDS011;60886;55.034;73.150;2023-08-06T09:50:36;14.95;;;7.68;;
72761;SDS011;60886;55.034;73.150;2023-08-06T09:53:39;12.73;;;8.00;;
72761;SDS011;60886;55.034;73.150;2023-08-06T09:56:42;12.97;;;7.40;;
72761;SDS011;60886;55.034;73.150;2023-08-06T09:59:44;12.52;;;7.60;;
72761;SDS011;60886;55.034;73.150;2023-08-06T10:02:48;12.87;;;7.13;;
72761;SDS011;60886;55.034;73.150;2023-08-06T10:05:50;13.52;;;7.47;;
72761;SDS011;60886;55.034;73.150;2023-08-06T10:08:52;12.37;;;7.50;;
72761;SDS011;60886;55.034;73.150;2023-08-06T10:11:53;12.60;;;7.78;;
72761;SDS011;60886;55.034;73.150;2023-08-06T10:14:56;12.40;;;7.30;;
72761;SDS011;60886;55.034;73.150;2023-08-06T10:18:00;11.45;;;7.07;;
72761;SDS011;60886;55.034;73.150;2023-08-06T10:21:03;14.15;;;7.25;;
72761;SDS011;60886;55.034;73.150;2023-08-06T10:24:08;15.20;;;7.20;;
72761;SDS011;60886;55.034;73.150;2023-08-06T10:27:12;12.13;;;7.00;;
72761;SDS011;60886;55.034;73.150;2023-08-06T10:30:21;10.63;;;6.30;;
72761;SDS011;60886;55.034;73.150;2023-08-06T10:33:42;12.00;;;6.47;;
72761;SDS011;60886;55.034;73.150;2023-08-06T10:36:45;15.30;;;7.07;;
72761;SDS011;60886;55.034;73.150;2023-08-06T10:39:50;10.43;;;6.35;;
72761;SDS011;60886;55.034;73.150;2023-08-06T10:42:52;13.40;;;6.50;;
72761;SDS011;60886;55.034;73.150;2023-08-06T10:45:53;12.93;;;6.23;;
72761;SDS011;60886;55.034;73.150;2023-08-06T10:48:55;10.27;;;6.00;;
72761;SDS011;60886;55.034;73.150;2023-08-06T10:51:57;11.02;;;6.20;;
72761;SDS011;60886;55.034;73.150;2023-08-06T10:54:58;10.15;;;5.85;;
72761;SDS011;60886;55.034;73.150;2023-08-06T10:58:00;11.60;;;6.20;;
72761;SDS011;60886;55.034;73.150;2023-08-06T11:01:01;10.50;;;5.80;;
72761;SDS011;60886;55.034;73.150;2023-08-06T11:04:02;11.20;;;5.80;;
72761;SDS011;60886;55.034;73.150;2023-08-06T11:07:06;11.15;;;5.60;;
72761;SDS011;60886;55.034;73.150;2023-08-06T11:10:09;11.25;;;5.32;;
72761;SDS011;60886;55.034;73.150;2023-08-06T11:13:12;10.07;;;5.20;;
72761;SDS011;60886;55.034;73.150;2023-08-06T11:16:22;9.65;;;5.30;;
72761;SDS011;60886;55.034;73.150;2023-08-06T11:19:27;11.25;;;5.45;;
72761;SDS011;60886;55.034;73.150;2023-08-06T11:22:28;10.83;;;5.53;;
72761;SDS011;60886;55.034;73.150;2023-08-06T11:25:43;11.94;;;5.34;;
72761;SDS011;60886;55.034;73.150;2023-08-06T11:28:46;13.25;;;6.05;;
72761;SDS011;60886;55.034;73.150;2023-08-06T11:31:47;10.00;;;5.37;;
72761;SDS011;60886;55.034;73.150;2023-08-06T11:34:50;10.27;;;5.60;;
72761;SDS011;60886;55.034;73.150;2023-08-06T11:37:53;19.15;;;11.75;;
72761;SDS011;60886;55.034;73.150;2023-08-06T11:40:54;11.18;;;5.18;;
72761;SDS011;60886;55.034;73.150;2023-08-06T11:43:56;10.00;;;5.40;;
72761;SDS011;60886;55.034;73.150;2023-08-06T11:46:58;11.00;;;5.47;;
72761;SDS011;60886;55.034;73.150;2023-08-06T11:50:04;12.48;;;5.78;;
72761;SDS011;60886;55.034;73.150;2023-08-06T11:53:06;11.98;;;5.93;;
72761;SDS011;60886;55.034;73.150;2023-08-06T11:56:08;12.33;;;5.87;;
72761;SDS011;60886;55.034;73.150;2023-08-06T11:59:10;10.20;;;5.88;;
72761;SDS011;60886;55.034;73.150;2023-08-06T12:02:11;13.17;;;6.00;;
72761;SDS011;60886;55.034;73.150;2023-08-06T12:05:16;12.07;;;5.72;;
72761;SDS011;60886;55.034;73.150;2023-08-06T12:08:21;11.80;;;5.57;;
72761;SDS011;60886;55.034;73.150;2023-08-06T12:11:28;22.97;;;12.57;;
72761;SDS011;60886;55.034;73.150;2023-08-06T12:14:29;10.80;;;5.60;;
72761;SDS011;60886;55.034;73.150;2023-08-06T12:17:42;9.87;;;5.20;;
72761;SDS011;60886;55.034;73.150;2023-08-06T12:20:44;12.48;;;5.10;;
72761;SDS011;60886;55.034;73.150;2023-08-06T12:23:45;12.23;;;5.13;;
72761;SDS011;60886;55.034;73.150;2023-08-06T12:26:46;8.63;;;4.67;;
72761;SDS011;60886;55.034;73.150;2023-08-06T12:29:48;10.77;;;4.57;;
72761;SDS011;60886;55.034;73.150;2023-08-06T12:32:49;12.23;;;4.43;;
72761;SDS011;60886;55.034;73.150;2023-08-06T12:35:52;12.60;;;4.53;;
72761;SDS011;60886;55.034;73.150;2023-08-06T12:38:58;9.98;;;4.28;;
72761;SDS011;60886;55.034;73.150;2023-08-06T12:42:03;11.07;;;5.25;;
72761;SDS011;60886;55.034;73.150;2023-08-06T12:45:06;10.10;;;4.30;;
72761;SDS011;60886;55.034;73.150;2023-08-06T12:48:07;9.93;;;3.93;;
72761;SDS011;60886;55.034;73.150;2023-08-06T12:51:09;7.95;;;3.85;;
72761;SDS011;60886;55.034;73.150;2023-08-06T12:54:11;8.82;;;4.22;;
72761;SDS011;60886;55.034;73.150;2023-08-06T12:57:12;9.20;;;3.90;;
72761;SDS011;60886;55.034;73.150;2023-08-06T13:00:14;10.52;;;4.82;;
72761;SDS011;60886;55.034;73.150;2023-08-06T13:03:15;25.03;;;5.23;;
72761;SDS011;60886;55.034;73.150;2023-08-06T13:06:16;10.00;;;3.85;;
72761;SDS011;60886;55.034;73.150;2023-08-06T13:09:18;8.03;;;3.50;;
72761;SDS011;60886;55.034;73.150;2023-08-06T13:12:20;13.30;;;4.00;;
72761;SDS011;60886;55.034;73.150;2023-08-06T13:15:23;8.57;;;3.45;;
72761;SDS011;60886;55.034;73.150;2023-08-06T13:18:25;12.70;;;4.10;;
72761;SDS011;60886;55.034;73.150;2023-08-06T13:21:31;9.65;;;3.67;;
72761;SDS011;60886;55.034;73.150;2023-08-06T13:24:34;8.73;;;3.60;;
72761;SDS011;60886;55.034;73.150;2023-08-06T13:27:36;9.10;;;3.70;;
72761;SDS011;60886;55.034;73.150;2023-08-06T13:30:37;8.62;;;3.74;;
72761;SDS011;60886;55.034;73.150;2023-08-06T13:33:42;7.80;;;3.22;;
72761;SDS011;60886;55.034;73.150;2023-08-06T13:36:44;8.67;;;3.57;;
72761;SDS011;60886;55.034;73.150;2023-08-06T13:39:45;10.57;;;4.03;;
72761;SDS011;60886;55.034;73.150;2023-08-06T13:42:47;10.63;;;4.32;;
72761;SDS011;60886;55.034;73.150;2023-08-06T13:45:48;9.07;;;3.50;;
72761;SDS011;60886;55.034;73.150;2023-08-06T13:48:49;10.40;;;3.65;;
72761;SDS011;60886;55.034;73.150;2023-08-06T13:51:53;8.97;;;3.20;;
72761;SDS011;60886;55.034;73.150;2023-08-06T13:54:55;9.30;;;3.15;;
72761;SDS011;60886;55.034;73.150;2023-08-06T13:57:56;9.40;;;3.65;;
72761;SDS011;60886;55.034;73.150;2023-08-06T14:00:57;7.13;;;3.00;;
72761;SDS011;60886;55.034;73.150;2023-08-06T14:03:59;13.02;;;5.97;;
72761;SDS011;60886;55.034;73.150;2023-08-06T14:07:00;10.13;;;3.40;;
72761;SDS011;60886;55.034;73.150;2023-08-06T14:10:01;7.38;;;3.47;;
72761;SDS011;60886;55.034;73.150;2023-08-06T14:13:03;7.97;;;3.30;;
72761;SDS011;60886;55.034;73.150;2023-08-06T14:16:04;6.33;;;2.57;;
72761;SDS011;60886;55.034;73.150;2023-08-06T14:19:06;7.03;;;2.50;;
72761;SDS011;60886;55.034;73.150;2023-08-06T14:22:07;8.37;;;2.17;;
72761;SDS011;60886;55.034;73.150;2023-08-06T14:25:09;6.47;;;1.90;;
72761;SDS011;60886;55.034;73.150;2023-08-06T14:28:10;5.43;;;1.67;;
72761;SDS011;60886;55.034;73.150;2023-08-06T14:31:12;6.88;;;2.00;;
72761;SDS011;60886;55.034;73.150;2023-08-06T14:34:14;8.27;;;2.90;;
72761;SDS011;60886;55.034;73.150;2023-08-06T14:37:16;6.97;;;2.27;;
72761;SDS011;60886;55.034;73.150;2023-08-06T14:40:18;6.73;;;2.00;;
72761;SDS011;60886;55.034;73.150;2023-08-06T14:43:20;7.30;;;2.67;;
72761;SDS011;60886;55.034;73.150;2023-08-06T14:46:21;8.63;;;2.40;;
72761;SDS011;60886;55.034;73.150;2023-08-06T14:49:23;6.82;;;2.30;;
72761;SDS011;60886;55.034;73.150;2023-08-06T14:52:24;7.10;;;2.07;;
72761;SDS011;60886;55.034;73.150;2023-08-06T14:55:35;7.39;;;2.24;;
72761;SDS011;60886;55.034;73.150;2023-08-06T14:58:38;8.23;;;2.30;;
72761;SDS011;60886;55.034;73.150;2023-08-06T15:01:39;6.30;;;2.10;;
72761;SDS011;60886;55.034;73.150;2023-08-06T15:04:41;6.65;;;2.00;;
72761;SDS011;60886;55.034;73.150;2023-08-06T15:07:43;7.47;;;2.47;;
72761;SDS011;60886;55.034;73.150;2023-08-06T15:10:51;6.93;;;2.20;;
72761;SDS011;60886;55.034;73.150;2023-08-06T15:13:55;6.80;;;2.20;;
72761;SDS011;60886;55.034;73.150;2023-08-06T15:16:57;91.55;;;46.05;;
72761;SDS011;60886;55.034;73.150;2023-08-06T15:19:58;12.07;;;5.05;;
72761;SDS011;60886;55.034;73.150;2023-08-06T15:23:00;7.90;;;2.25;;
72761;SDS011;60886;55.034;73.150;2023-08-06T15:26:01;7.50;;;2.10;;
72761;SDS011;60886;55.034;73.150;2023-08-06T15:29:03;7.05;;;2.35;;
72761;SDS011;60886;55.034;73.150;2023-08-06T15:32:04;7.93;;;2.20;;
72761;SDS011;60886;55.034;73.150;2023-08-06T15:35:07;10.03;;;2.00;;
72761;SDS011;60886;55.034;73.150;2023-08-06T15:38:12;9.23;;;2.40;;
72761;SDS011;60886;55.034;73.150;2023-08-06T15:41:13;8.73;;;2.40;;
72761;SDS011;60886;55.034;73.150;2023-08-06T15:44:15;12.30;;;3.75;;
72761;SDS011;60886;55.034;73.150;2023-08-06T15:47:17;8.90;;;3.15;;
72761;SDS011;60886;55.034;73.150;2023-08-06T15:50:18;10.18;;;2.55;;
72761;SDS011;60886;55.034;73.150;2023-08-06T15:53:20;11.33;;;2.33;;
72761;SDS011;60886;55.034;73.150;2023-08-06T15:56:22;9.53;;;2.70;;
72761;SDS011;60886;55.034;73.150;2023-08-06T15:59:30;12.65;;;2.40;;
72761;SDS011;60886;55.034;73.150;2023-08-06T16:02:33;10.02;;;2.40;;
72761;SDS011;60886;55.034;73.150;2023-08-06T16:05:35;11.02;;;2.60;;
72761;SDS011;60886;55.034;73.150;2023-08-06T16:08:37;10.00;;;2.42;;
72761;SDS011;60886;55.034;73.150;2023-08-06T16:11:39;16.27;;;6.88;;
72761;SDS011;60886;55.034;73.150;2023-08-06T16:14:41;9.93;;;3.08;;
72761;SDS011;60886;55.034;73.150;2023-08-06T16:17:42;12.40;;;3.43;;
72761;SDS011;60886;55.034;73.150;2023-08-06T16:20:44;11.85;;;3.05;;
72761;SDS011;60886;55.034;73.150;2023-08-06T16:23:46;7.88;;;2.40;;
72761;SDS011;60886;55.034;73.150;2023-08-06T16:26:47;9.83;;;2.77;;
72761;SDS011;60886;55.034;73.150;2023-08-06T16:29:48;10.55;;;2.92;;
72761;SDS011;60886;55.034;73.150;2023-08-06T16:32:50;9.53;;;2.53;;
72761;SDS011;60886;55.034;73.150;2023-08-06T16:35:52;9.70;;;2.77;;
72761;SDS011;60886;55.034;73.150;2023-08-06T16:38:58;12.10;;;2.53;;
72761;SDS011;60886;55.034;73.150;2023-08-06T16:42:01;10.10;;;2.65;;
72761;SDS011;60886;55.034;73.150;2023-08-06T16:45:02;9.10;;;3.00;;
72761;SDS011;60886;55.034;73.150;2023-08-06T16:48:05;9.53;;;2.50;;
72761;SDS011;60886;55.034;73.150;2023-08-06T16:51:06;14.88;;;5.70;;
72761;SDS011;60886;55.034;73.150;2023-08-06T16:54:07;8.40;;;2.10;;
72761;SDS011;60886;55.034;73.150;2023-08-06T16:57:10;8.70;;;2.10;;
72761;SDS011;60886;55.034;73.150;2023-08-06T17:00:14;7.95;;;1.85;;
72761;SDS011;60886;55.034;73.150;2023-08-06T17:03:17;5.90;;;1.90;;
72761;SDS011;60886;55.034;73.150;2023-08-06T17:06:21;6.07;;;1.90;;
72761;SDS011;60886;55.034;73.150;2023-08-06T17:09:24;5.40;;;1.83;;
72761;SDS011;60886;55.034;73.150;2023-08-06T17:12:25;5.33;;;1.70;;
72761;SDS011;60886;55.034;73.150;2023-08-06T17:15:35;7.75;;;3.03;;
72761;SDS011;60886;55.034;73.150;2023-08-06T17:18:36;8.32;;;3.67;;
72761;SDS011;60886;55.034;73.150;2023-08-06T17:21:38;7.88;;;2.40;;
72761;SDS011;60886;55.034;73.150;2023-08-06T17:24:40;5.90;;;1.75;;
72761;SDS011;60886;55.034;73.150;2023-08-06T17:27:42;6.30;;;1.63;;
72761;SDS011;60886;55.034;73.150;2023-08-06T17:30:43;6.03;;;1.60;;
72761;SDS011;60886;55.034;73.150;2023-08-06T17:33:45;5.93;;;1.88;;
72761;SDS011;60886;55.034;73.150;2023-08-06T17:36:46;7.03;;;1.53;;
72761;SDS011;60886;55.034;73.150;2023-08-06T17:39:47;5.35;;;1.73;;
72761;SDS011;60886;55.034;73.150;2023-08-06T17:42:49;5.67;;;1.57;;
72761;SDS011;60886;55.034;73.150;2023-08-06T17:45:51;6.27;;;1.50;;
72761;SDS011;60886;55.034;73.150;2023-08-06T17:48:52;6.07;;;1.70;;
72761;SDS011;60886;55.034;73.150;2023-08-06T17:51:56;6.97;;;1.85;;
72761;SDS011;60886;55.034;73.150;2023-08-06T17:54:57;5.40;;;1.50;;
72761;SDS011;60886;55.034;73.150;2023-08-06T17:57:58;6.40;;;1.80;;